MBS International Airport
KMBS : now visible

Airfield :











YOU CAN JOIN US ON...

 
LOGIN :

Register | Disclaimer

   EN    FR    IT 

 









Legend :    VFR   Marginal VFR   IFR   Intensive IFR   Very Intensive IFR
Visi :
Ceiling :
>= 8 km
>= 3000ft
5 to 8 km
1000 to 3000 ft
1500m to 5 km
500 to 1000 ft
800 to 1500m
200 to 500 ft
< 800m
< 200 ft
Symbols :   Thunderstorms  Fog  Heavy snow  Heavy precipitations  Wind > 20 kt






- Airport Elevation : 668 ft
- IATA code : MBS


KMBS - MBS International

CURRENT METAR :
  • 261602Z 01016KT 1SM R23/P6000FT -SN FEW010 BKN020 OVC029 M03/M07 A3000 RMK AO2 P0000 T10281067

EXPIRED METARs :
  • 261517Z 01015KT 3/4SM R23/5500VP6000FT -SN BKN020 OVC029 M03/M07 A3002 RMK AO2 TWR VIS 1 P0000 T10331072
  • 261453Z 01013KT 1SM R23/P6000FT -SN BKN024 OVC036 M03/M07 A3003 RMK AO2 SLP177 P0001 60001 T10331072 51006
  • 261434Z 36013KT 1SM R23/P6000FT -SN FEW012 BKN024 OVC034 M03/M07 A3004 RMK AO2 P0000 T10331072
  • 261353Z 02015G24KT 1SM R23/P6000FT -SN OVC025 M03/M07 A3002 RMK AO2 SLP176 P0000 T10331072
  • 261331Z 01015KT 1SM R23/P6000FT -SN OVC022 M03/M07 A3002 RMK AO2 P0000 T10281072

TAF KMBS
Valid from the 26 at 15:00 until the 27 at 12:00 UTC


261512Z 2615/2712 02014G23KT 2SM -SN BKN018 OVC025
TEMPO 2615/2617 1SM -SN OVC018
FM261800 03014G23KT 1 1/2SM BR SCT008 OVC018
FM262300 33013G22KT P6SM -SHSN OVC020
FM270400 31015G24KT P6SM OVC025



MET'MAP, your aeronautical weather chart ! - Copyright ORBIFLY December 2007 - Disclaimer

ORBIFLY MET'MAP TEAM :

Programming & Development : Alexandra Zaïnal
Concept & original design : Baudouin d'Aumeries
Assistance for programming : Marc-Olivier Méhu
Technical & hardware support : Manuel Goepfert

Contact : metmap@orbifly.com




SOURCES & CREDITS :

   NOAA       Earth
Advisory